sensor_id;sensor_type;location;lat;lon;timestamp;P1;durP1;ratioP1;P2;durP2;ratioP2
15905;SDS011;8051;50.820;4.884;2022-10-16T00:00:40;8.13;;;7.73;;
15905;SDS011;8051;50.820;4.884;2022-10-16T00:03:08;8.70;;;8.20;;
15905;SDS011;8051;50.820;4.884;2022-10-16T00:05:38;8.13;;;7.73;;
15905;SDS011;8051;50.820;4.884;2022-10-16T00:08:06;8.07;;;7.60;;
15905;SDS011;8051;50.820;4.884;2022-10-16T00:10:34;7.90;;;7.50;;
15905;SDS011;8051;50.820;4.884;2022-10-16T00:13:01;7.87;;;7.47;;
15905;SDS011;8051;50.820;4.884;2022-10-16T00:15:28;7.70;;;7.40;;
15905;SDS011;8051;50.820;4.884;2022-10-16T00:17:57;8.17;;;7.67;;
15905;SDS011;8051;50.820;4.884;2022-10-16T00:20:24;8.13;;;7.73;;
15905;SDS011;8051;50.820;4.884;2022-10-16T00:22:51;7.83;;;7.30;;
15905;SDS011;8051;50.820;4.884;2022-10-16T00:25:17;8.00;;;7.30;;
15905;SDS011;8051;50.820;4.884;2022-10-16T00:27:44;8.07;;;7.47;;
15905;SDS011;8051;50.820;4.884;2022-10-16T00:30:11;7.73;;;7.33;;
15905;SDS011;8051;50.820;4.884;2022-10-16T00:32:38;7.77;;;7.37;;
15905;SDS011;8051;50.820;4.884;2022-10-16T00:35:06;8.37;;;7.97;;
15905;SDS011;8051;50.820;4.884;2022-10-16T00:37:33;7.90;;;7.40;;
15905;SDS011;8051;50.820;4.884;2022-10-16T00:40:00;7.23;;;6.93;;
15905;SDS011;8051;50.820;4.884;2022-10-16T00:42:27;7.27;;;6.97;;
15905;SDS011;8051;50.820;4.884;2022-10-16T00:44:55;7.07;;;6.77;;
15905;SDS011;8051;50.820;4.884;2022-10-16T00:47:24;7.60;;;7.20;;
15905;SDS011;8051;50.820;4.884;2022-10-16T00:49:56;7.60;;;7.17;;
15905;SDS011;8051;50.820;4.884;2022-10-16T00:52:29;7.73;;;7.23;;
15905;SDS011;8051;50.820;4.884;2022-10-16T00:54:56;7.60;;;7.10;;
15905;SDS011;8051;50.820;4.884;2022-10-16T00:57:24;7.10;;;6.50;;
15905;SDS011;8051;50.820;4.884;2022-10-16T00:59:51;6.60;;;6.20;;
15905;SDS011;8051;50.820;4.884;2022-10-16T01:02:19;6.90;;;6.50;;
15905;SDS011;8051;50.820;4.884;2022-10-16T01:04:47;8.03;;;7.23;;
15905;SDS011;8051;50.820;4.884;2022-10-16T01:07:20;7.10;;;6.60;;
15905;SDS011;8051;50.820;4.884;2022-10-16T01:10:01;6.97;;;6.57;;
15905;SDS011;8051;50.820;4.884;2022-10-16T01:12:36;7.17;;;6.67;;
15905;SDS011;8051;50.820;4.884;2022-10-16T01:15:11;7.10;;;6.70;;
15905;SDS011;8051;50.820;4.884;2022-10-16T01:17:45;7.33;;;6.90;;
15905;SDS011;8051;50.820;4.884;2022-10-16T01:20:20;7.40;;;6.90;;
15905;SDS011;8051;50.820;4.884;2022-10-16T01:25:52;7.90;;;7.23;;
15905;SDS011;8051;50.820;4.884;2022-10-16T01:28:31;7.20;;;6.80;;
15905;SDS011;8051;50.820;4.884;2022-10-16T01:31:03;7.93;;;7.13;;
15905;SDS011;8051;50.820;4.884;2022-10-16T01:33:33;8.30;;;7.70;;
15905;SDS011;8051;50.820;4.884;2022-10-16T01:36:03;8.53;;;7.73;;
15905;SDS011;8051;50.820;4.884;2022-10-16T01:38:34;7.80;;;7.20;;
15905;SDS011;8051;50.820;4.884;2022-10-16T01:41:04;7.80;;;7.20;;
15905;SDS011;8051;50.820;4.884;2022-10-16T01:43:37;8.40;;;7.80;;
15905;SDS011;8051;50.820;4.884;2022-10-16T01:46:08;7.80;;;7.20;;
15905;SDS011;8051;50.820;4.884;2022-10-16T01:48:36;8.73;;;8.03;;
15905;SDS011;8051;50.820;4.884;2022-10-16T01:51:05;7.83;;;7.30;;
15905;SDS011;8051;50.820;4.884;2022-10-16T01:53:35;8.77;;;7.97;;
15905;SDS011;8051;50.820;4.884;2022-10-16T01:56:03;8.87;;;8.13;;
15905;SDS011;8051;50.820;4.884;2022-10-16T01:58:37;7.97;;;7.37;;
15905;SDS011;8051;50.820;4.884;2022-10-16T02:01:08;8.90;;;8.20;;
15905;SDS011;8051;50.820;4.884;2022-10-16T02:03:37;9.17;;;7.90;;
15905;SDS011;8051;50.820;4.884;2022-10-16T02:06:06;8.30;;;7.53;;
15905;SDS011;8051;50.820;4.884;2022-10-16T02:08:34;8.37;;;7.57;;
15905;SDS011;8051;50.820;4.884;2022-10-16T02:11:02;8.70;;;8.00;;
15905;SDS011;8051;50.820;4.884;2022-10-16T02:13:30;8.77;;;7.97;;
15905;SDS011;8051;50.820;4.884;2022-10-16T02:16:03;8.47;;;7.87;;
15905;SDS011;8051;50.820;4.884;2022-10-16T02:18:30;7.87;;;7.37;;
15905;SDS011;8051;50.820;4.884;2022-10-16T02:20:59;9.53;;;7.50;;
15905;SDS011;8051;50.820;4.884;2022-10-16T02:23:31;7.03;;;6.63;;
15905;SDS011;8051;50.820;4.884;2022-10-16T02:26:05;7.30;;;6.70;;
15905;SDS011;8051;50.820;4.884;2022-10-16T02:28:36;7.20;;;6.70;;
15905;SDS011;8051;50.820;4.884;2022-10-16T02:31:10;7.40;;;6.90;;
15905;SDS011;8051;50.820;4.884;2022-10-16T02:33:39;7.93;;;6.90;;
15905;SDS011;8051;50.820;4.884;2022-10-16T02:36:09;7.70;;;7.10;;
15905;SDS011;8051;50.820;4.884;2022-10-16T02:38:36;6.80;;;6.40;;
15905;SDS011;8051;50.820;4.884;2022-10-16T02:41:04;7.43;;;6.83;;
15905;SDS011;8051;50.820;4.884;2022-10-16T02:43:31;7.10;;;6.60;;
15905;SDS011;8051;50.820;4.884;2022-10-16T02:45:59;6.97;;;6.53;;
15905;SDS011;8051;50.820;4.884;2022-10-16T02:48:27;6.93;;;6.37;;
15905;SDS011;8051;50.820;4.884;2022-10-16T02:50:54;7.20;;;6.50;;
15905;SDS011;8051;50.820;4.884;2022-10-16T02:53:22;6.90;;;6.27;;
15905;SDS011;8051;50.820;4.884;2022-10-16T02:55:49;8.33;;;6.57;;
15905;SDS011;8051;50.820;4.884;2022-10-16T02:58:15;7.07;;;6.57;;
15905;SDS011;8051;50.820;4.884;2022-10-16T03:00:42;7.30;;;6.60;;
15905;SDS011;8051;50.820;4.884;2022-10-16T03:03:09;9.70;;;6.40;;
15905;SDS011;8051;50.820;4.884;2022-10-16T03:05:37;6.73;;;6.07;;
15905;SDS011;8051;50.820;4.884;2022-10-16T03:08:04;6.70;;;6.30;;
15905;SDS011;8051;50.820;4.884;2022-10-16T03:10:31;6.70;;;6.10;;
15905;SDS011;8051;50.820;4.884;2022-10-16T03:12:58;8.30;;;6.60;;
15905;SDS011;8051;50.820;4.884;2022-10-16T03:15:25;7.43;;;6.60;;
15905;SDS011;8051;50.820;4.884;2022-10-16T03:17:53;6.33;;;5.93;;
15905;SDS011;8051;50.820;4.884;2022-10-16T03:20:20;6.80;;;6.20;;
15905;SDS011;8051;50.820;4.884;2022-10-16T03:22:48;6.80;;;6.30;;
15905;SDS011;8051;50.820;4.884;2022-10-16T03:25:15;6.73;;;6.17;;
15905;SDS011;8051;50.820;4.884;2022-10-16T03:27:42;7.03;;;6.27;;
15905;SDS011;8051;50.820;4.884;2022-10-16T03:30:09;6.67;;;6.27;;
15905;SDS011;8051;50.820;4.884;2022-10-16T03:32:36;9.90;;;6.40;;
15905;SDS011;8051;50.820;4.884;2022-10-16T03:35:03;6.93;;;6.27;;
15905;SDS011;8051;50.820;4.884;2022-10-16T03:37:31;7.93;;;6.57;;
15905;SDS011;8051;50.820;4.884;2022-10-16T03:39:59;6.97;;;6.47;;
15905;SDS011;8051;50.820;4.884;2022-10-16T03:42:26;6.47;;;6.10;;
15905;SDS011;8051;50.820;4.884;2022-10-16T03:44:53;6.47;;;5.97;;
15905;SDS011;8051;50.820;4.884;2022-10-16T03:47:20;6.90;;;6.40;;
15905;SDS011;8051;50.820;4.884;2022-10-16T03:49:48;6.43;;;5.77;;
15905;SDS011;8051;50.820;4.884;2022-10-16T03:52:16;7.47;;;6.40;;
15905;SDS011;8051;50.820;4.884;2022-10-16T03:54:43;6.87;;;6.20;;
15905;SDS011;8051;50.820;4.884;2022-10-16T03:57:11;7.63;;;6.90;;
15905;SDS011;8051;50.820;4.884;2022-10-16T03:59:38;7.20;;;6.60;;
15905;SDS011;8051;50.820;4.884;2022-10-16T04:02:05;6.83;;;6.33;;
15905;SDS011;8051;50.820;4.884;2022-10-16T04:04:32;6.77;;;6.23;;
15905;SDS011;8051;50.820;4.884;2022-10-16T04:06:59;7.10;;;6.40;;
15905;SDS011;8051;50.820;4.884;2022-10-16T04:09:26;6.70;;;6.20;;
15905;SDS011;8051;50.820;4.884;2022-10-16T04:11:52;6.43;;;5.83;;
15905;SDS011;8051;50.820;4.884;2022-10-16T04:14:21;7.20;;;6.47;;
15905;SDS011;8051;50.820;4.884;2022-10-16T04:16:48;9.20;;;6.63;;
15905;SDS011;8051;50.820;4.884;2022-10-16T04:19:14;7.03;;;6.43;;
15905;SDS011;8051;50.820;4.884;2022-10-16T04:21:41;8.33;;;7.23;;
15905;SDS011;8051;50.820;4.884;2022-10-16T04:24:08;7.70;;;6.90;;
15905;SDS011;8051;50.820;4.884;2022-10-16T04:26:36;7.37;;;6.67;;
15905;SDS011;8051;50.820;4.884;2022-10-16T04:29:03;6.93;;;6.33;;
15905;SDS011;8051;50.820;4.884;2022-10-16T04:31:32;7.40;;;6.87;;
15905;SDS011;8051;50.820;4.884;2022-10-16T04:33:59;7.50;;;6.90;;
15905;SDS011;8051;50.820;4.884;2022-10-16T04:36:26;7.57;;;6.77;;
15905;SDS011;8051;50.820;4.884;2022-10-16T04:38:53;7.47;;;6.77;;
15905;SDS011;8051;50.820;4.884;2022-10-16T04:41:20;7.07;;;6.57;;
15905;SDS011;8051;50.820;4.884;2022-10-16T04:43:47;6.73;;;6.20;;
15905;SDS011;8051;50.820;4.884;2022-10-16T04:46:13;6.73;;;6.23;;
15905;SDS011;8051;50.820;4.884;2022-10-16T04:48:42;7.10;;;6.50;;
15905;SDS011;8051;50.820;4.884;2022-10-16T04:51:08;6.90;;;6.30;;
15905;SDS011;8051;50.820;4.884;2022-10-16T04:53:35;8.47;;;6.87;;
15905;SDS011;8051;50.820;4.884;2022-10-16T04:56:02;7.93;;;6.90;;
15905;SDS011;8051;50.820;4.884;2022-10-16T04:58:29;7.47;;;6.83;;
15905;SDS011;8051;50.820;4.884;2022-10-16T05:00:56;7.27;;;6.57;;
15905;SDS011;8051;50.820;4.884;2022-10-16T05:03:23;7.40;;;6.70;;
15905;SDS011;8051;50.820;4.884;2022-10-16T05:05:51;6.77;;;6.17;;
15905;SDS011;8051;50.820;4.884;2022-10-16T05:08:18;11.05;;;6.20;;
15905;SDS011;8051;50.820;4.884;2022-10-16T05:10:45;7.77;;;7.17;;
15905;SDS011;8051;50.820;4.884;2022-10-16T05:13:12;8.00;;;7.27;;
15905;SDS011;8051;50.820;4.884;2022-10-16T05:15:39;8.33;;;7.07;;
15905;SDS011;8051;50.820;4.884;2022-10-16T05:18:06;6.23;;;5.77;;
15905;SDS011;8051;50.820;4.884;2022-10-16T05:20:33;8.00;;;7.17;;
15905;SDS011;8051;50.820;4.884;2022-10-16T05:23:01;7.03;;;6.43;;
15905;SDS011;8051;50.820;4.884;2022-10-16T05:25:28;8.27;;;6.03;;
15905;SDS011;8051;50.820;4.884;2022-10-16T05:27:55;9.00;;;6.97;;
15905;SDS011;8051;50.820;4.884;2022-10-16T05:30:21;9.00;;;6.13;;
15905;SDS011;8051;50.820;4.884;2022-10-16T05:32:49;6.90;;;6.27;;
15905;SDS011;8051;50.820;4.884;2022-10-16T05:35:16;14.27;;;7.20;;
15905;SDS011;8051;50.820;4.884;2022-10-16T05:37:44;7.03;;;6.43;;
15905;SDS011;8051;50.820;4.884;2022-10-16T05:40:13;7.73;;;7.07;;
15905;SDS011;8051;50.820;4.884;2022-10-16T05:42:41;6.67;;;6.13;;
15905;SDS011;8051;50.820;4.884;2022-10-16T05:45:09;7.17;;;6.57;;
15905;SDS011;8051;50.820;4.884;2022-10-16T05:47:36;6.83;;;6.23;;
15905;SDS011;8051;50.820;4.884;2022-10-16T05:50:03;7.13;;;6.40;;
15905;SDS011;8051;50.820;4.884;2022-10-16T05:52:30;7.23;;;6.57;;
15905;SDS011;8051;50.820;4.884;2022-10-16T05:54:57;9.33;;;6.80;;
15905;SDS011;8051;50.820;4.884;2022-10-16T05:57:26;8.03;;;7.30;;
15905;SDS011;8051;50.820;4.884;2022-10-16T05:59:52;7.73;;;7.00;;
15905;SDS011;8051;50.820;4.884;2022-10-16T06:02:19;7.57;;;6.87;;
15905;SDS011;8051;50.820;4.884;2022-10-16T06:04:46;10.33;;;7.00;;
15905;SDS011;8051;50.820;4.884;2022-10-16T06:07:13;8.33;;;7.17;;
15905;SDS011;8051;50.820;4.884;2022-10-16T06:09:40;9.03;;;7.27;;
15905;SDS011;8051;50.820;4.884;2022-10-16T06:12:06;7.57;;;6.97;;
15905;SDS011;8051;50.820;4.884;2022-10-16T06:14:35;7.43;;;6.73;;
15905;SDS011;8051;50.820;4.884;2022-10-16T06:17:02;8.40;;;7.57;;
15905;SDS011;8051;50.820;4.884;2022-10-16T06:19:29;7.83;;;7.13;;
15905;SDS011;8051;50.820;4.884;2022-10-16T06:21:56;8.10;;;7.33;;
15905;SDS011;8051;50.820;4.884;2022-10-16T06:24:23;8.10;;;7.47;;
15905;SDS011;8051;50.820;4.884;2022-10-16T06:26:50;9.80;;;7.97;;
15905;SDS011;8051;50.820;4.884;2022-10-16T06:29:17;8.87;;;6.73;;
15905;SDS011;8051;50.820;4.884;2022-10-16T06:31:46;8.27;;;7.50;;
15905;SDS011;8051;50.820;4.884;2022-10-16T06:34:15;10.13;;;7.53;;
15905;SDS011;8051;50.820;4.884;2022-10-16T06:36:41;8.83;;;7.20;;
15905;SDS011;8051;50.820;4.884;2022-10-16T06:39:09;8.10;;;7.50;;
15905;SDS011;8051;50.820;4.884;2022-10-16T06:41:35;10.27;;;7.53;;
15905;SDS011;8051;50.820;4.884;2022-10-16T06:44:04;11.17;;;8.00;;
15905;SDS011;8051;50.820;4.884;2022-10-16T06:46:32;7.87;;;7.27;;
15905;SDS011;8051;50.820;4.884;2022-10-16T06:49:00;9.27;;;7.77;;
15905;SDS011;8051;50.820;4.884;2022-10-16T06:51:27;8.67;;;7.87;;
15905;SDS011;8051;50.820;4.884;2022-10-16T06:53:55;9.30;;;8.00;;
15905;SDS011;8051;50.820;4.884;2022-10-16T06:56:23;8.60;;;7.90;;
15905;SDS011;8051;50.820;4.884;2022-10-16T06:58:51;8.57;;;7.87;;
15905;SDS011;8051;50.820;4.884;2022-10-16T07:01:19;9.40;;;8.57;;
15905;SDS011;8051;50.820;4.884;2022-10-16T07:03:47;10.03;;;9.00;;
15905;SDS011;8051;50.820;4.884;2022-10-16T07:06:16;9.27;;;8.27;;
15905;SDS011;8051;50.820;4.884;2022-10-16T07:08:45;8.67;;;7.77;;
15905;SDS011;8051;50.820;4.884;2022-10-16T07:11:14;9.77;;;8.93;;
15905;SDS011;8051;50.820;4.884;2022-10-16T07:13:43;8.47;;;7.77;;
15905;SDS011;8051;50.820;4.884;2022-10-16T07:16:11;10.60;;;8.43;;
15905;SDS011;8051;50.820;4.884;2022-10-16T07:18:39;9.37;;;8.47;;
15905;SDS011;8051;50.820;4.884;2022-10-16T07:21:07;9.20;;;8.47;;
15905;SDS011;8051;50.820;4.884;2022-10-16T07:23:37;9.60;;;7.83;;
15905;SDS011;8051;50.820;4.884;2022-10-16T07:26:04;9.03;;;8.13;;
15905;SDS011;8051;50.820;4.884;2022-10-16T07:28:32;8.63;;;7.77;;
15905;SDS011;8051;50.820;4.884;2022-10-16T07:31:00;8.10;;;7.40;;
15905;SDS011;8051;50.820;4.884;2022-10-16T07:33:28;8.10;;;7.30;;
15905;SDS011;8051;50.820;4.884;2022-10-16T07:35:55;8.93;;;8.23;;
15905;SDS011;8051;50.820;4.884;2022-10-16T07:38:23;10.47;;;7.67;;
15905;SDS011;8051;50.820;4.884;2022-10-16T07:40:56;9.27;;;8.50;;
15905;SDS011;8051;50.820;4.884;2022-10-16T07:43:24;9.33;;;8.30;;
15905;SDS011;8051;50.820;4.884;2022-10-16T07:45:51;10.47;;;7.83;;
15905;SDS011;8051;50.820;4.884;2022-10-16T07:48:19;8.47;;;7.40;;
15905;SDS011;8051;50.820;4.884;2022-10-16T07:50:47;8.37;;;7.67;;
15905;SDS011;8051;50.820;4.884;2022-10-16T07:53:14;10.03;;;9.07;;
15905;SDS011;8051;50.820;4.884;2022-10-16T07:55:41;8.77;;;7.87;;
15905;SDS011;8051;50.820;4.884;2022-10-16T07:58:12;9.20;;;8.50;;
15905;SDS011;8051;50.820;4.884;2022-10-16T08:00:39;9.17;;;8.30;;
15905;SDS011;8051;50.820;4.884;2022-10-16T08:03:05;8.27;;;7.53;;
15905;SDS011;8051;50.820;4.884;2022-10-16T08:05:32;9.33;;;8.53;;
15905;SDS011;8051;50.820;4.884;2022-10-16T08:08:00;12.87;;;8.80;;
15905;SDS011;8051;50.820;4.884;2022-10-16T08:10:28;9.53;;;8.73;;
15905;SDS011;8051;50.820;4.884;2022-10-16T08:12:56;9.17;;;8.23;;
15905;SDS011;8051;50.820;4.884;2022-10-16T08:15:25;10.23;;;9.43;;
15905;SDS011;8051;50.820;4.884;2022-10-16T08:17:56;8.80;;;8.20;;
15905;SDS011;8051;50.820;4.884;2022-10-16T08:20:23;9.83;;;9.03;;
15905;SDS011;8051;50.820;4.884;2022-10-16T08:22:50;9.57;;;8.87;;
15905;SDS011;8051;50.820;4.884;2022-10-16T08:25:17;9.97;;;9.13;;
15905;SDS011;8051;50.820;4.884;2022-10-16T08:27:44;9.20;;;8.57;;
15905;SDS011;8051;50.820;4.884;2022-10-16T08:30:11;9.93;;;9.23;;
15905;SDS011;8051;50.820;4.884;2022-10-16T08:32:39;10.27;;;9.30;;
15905;SDS011;8051;50.820;4.884;2022-10-16T08:35:07;11.03;;;10.13;;
15905;SDS011;8051;50.820;4.884;2022-10-16T08:37:35;10.30;;;9.53;;
15905;SDS011;8051;50.820;4.884;2022-10-16T08:40:02;10.53;;;9.73;;
15905;SDS011;8051;50.820;4.884;2022-10-16T08:42:44;10.27;;;9.43;;
15905;SDS011;8051;50.820;4.884;2022-10-16T08:45:21;13.47;;;9.87;;
15905;SDS011;8051;50.820;4.884;2022-10-16T08:48:04;10.93;;;10.23;;
15905;SDS011;8051;50.820;4.884;2022-10-16T08:50:41;11.10;;;10.00;;
15905;SDS011;8051;50.820;4.884;2022-10-16T08:53:10;10.80;;;10.10;;
15905;SDS011;8051;50.820;4.884;2022-10-16T08:55:43;10.87;;;9.97;;
15905;SDS011;8051;50.820;4.884;2022-10-16T08:58:13;10.80;;;9.80;;
15905;SDS011;8051;50.820;4.884;2022-10-16T09:00:42;9.73;;;9.13;;
15905;SDS011;8051;50.820;4.884;2022-10-16T09:03:16;10.27;;;9.47;;
15905;SDS011;8051;50.820;4.884;2022-10-16T09:05:55;10.40;;;9.70;;
15905;SDS011;8051;50.820;4.884;2022-10-16T09:08:34;10.47;;;9.70;;
15905;SDS011;8051;50.820;4.884;2022-10-16T09:11:08;10.93;;;10.13;;
15905;SDS011;8051;50.820;4.884;2022-10-16T09:13:43;10.80;;;9.70;;
15905;SDS011;8051;50.820;4.884;2022-10-16T09:16:18;11.17;;;10.37;;
15905;SDS011;8051;50.820;4.884;2022-10-16T09:18:53;11.50;;;10.70;;
15905;SDS011;8051;50.820;4.884;2022-10-16T09:21:26;10.50;;;9.60;;
15905;SDS011;8051;50.820;4.884;2022-10-16T09:23:57;10.57;;;9.87;;
15905;SDS011;8051;50.820;4.884;2022-10-16T09:26:26;11.50;;;10.80;;
15905;SDS011;8051;50.820;4.884;2022-10-16T09:28:53;10.87;;;10.07;;
15905;SDS011;8051;50.820;4.884;2022-10-16T09:31:20;10.60;;;9.83;;
15905;SDS011;8051;50.820;4.884;2022-10-16T09:33:50;10.90;;;10.00;;
15905;SDS011;8051;50.820;4.884;2022-10-16T09:36:21;10.83;;;10.23;;
15905;SDS011;8051;50.820;4.884;2022-10-16T09:39:01;11.33;;;10.53;;
15905;SDS011;8051;50.820;4.884;2022-10-16T09:41:29;12.07;;;11.27;;
15905;SDS011;8051;50.820;4.884;2022-10-16T09:43:56;11.60;;;10.83;;
15905;SDS011;8051;50.820;4.884;2022-10-16T09:46:26;12.80;;;11.60;;
15905;SDS011;8051;50.820;4.884;2022-10-16T09:48:56;11.07;;;10.20;;
15905;SDS011;8051;50.820;4.884;2022-10-16T09:51:25;12.53;;;11.37;;
15905;SDS011;8051;50.820;4.884;2022-10-16T09:53:57;11.33;;;10.60;;
15905;SDS011;8051;50.820;4.884;2022-10-16T09:56:26;10.43;;;9.73;;
15905;SDS011;8051;50.820;4.884;2022-10-16T09:58:55;12.00;;;11.00;;
15905;SDS011;8051;50.820;4.884;2022-10-16T10:01:24;11.63;;;10.77;;
15905;SDS011;8051;50.820;4.884;2022-10-16T10:03:57;11.50;;;10.77;;
15905;SDS011;8051;50.820;4.884;2022-10-16T10:06:29;12.33;;;11.07;;
15905;SDS011;8051;50.820;4.884;2022-10-16T10:08:59;11.67;;;10.97;;
15905;SDS011;8051;50.820;4.884;2022-10-16T10:11:39;11.80;;;11.10;;
15905;SDS011;8051;50.820;4.884;2022-10-16T10:14:17;11.50;;;10.70;;
15905;SDS011;8051;50.820;4.884;2022-10-16T10:17:02;12.43;;;11.53;;
15905;SDS011;8051;50.820;4.884;2022-10-16T10:19:40;14.53;;;13.47;;
15905;SDS011;8051;50.820;4.884;2022-10-16T10:25:23;12.53;;;11.63;;
15905;SDS011;8051;50.820;4.884;2022-10-16T10:28:17;10.70;;;10.00;;
15905;SDS011;8051;50.820;4.884;2022-10-16T10:30:53;11.90;;;11.10;;
15905;SDS011;8051;50.820;4.884;2022-10-16T10:33:28;10.90;;;10.30;;
15905;SDS011;8051;50.820;4.884;2022-10-16T10:36:08;12.07;;;10.70;;
15905;SDS011;8051;50.820;4.884;2022-10-16T10:38:45;11.53;;;10.83;;
15905;SDS011;8051;50.820;4.884;2022-10-16T10:41:23;11.93;;;11.00;;
15905;SDS011;8051;50.820;4.884;2022-10-16T10:44:12;11.93;;;10.93;;
15905;SDS011;8051;50.820;4.884;2022-10-16T10:46:48;12.07;;;11.13;;
15905;SDS011;8051;50.820;4.884;2022-10-16T10:52:25;12.00;;;11.30;;
15905;SDS011;8051;50.820;4.884;2022-10-16T10:55:09;12.07;;;11.30;;
15905;SDS011;8051;50.820;4.884;2022-10-16T10:57:48;11.70;;;11.10;;
15905;SDS011;8051;50.820;4.884;2022-10-16T11:00:30;12.87;;;11.93;;
15905;SDS011;8051;50.820;4.884;2022-10-16T11:03:08;12.77;;;11.70;;
15905;SDS011;8051;50.820;4.884;2022-10-16T11:05:51;11.30;;;10.70;;
15905;SDS011;8051;50.820;4.884;2022-10-16T11:08:22;12.47;;;11.77;;
15905;SDS011;8051;50.820;4.884;2022-10-16T11:10:54;13.93;;;12.80;;
15905;SDS011;8051;50.820;4.884;2022-10-16T11:13:28;12.87;;;12.03;;
15905;SDS011;8051;50.820;4.884;2022-10-16T11:16:00;12.83;;;11.97;;
15905;SDS011;8051;50.820;4.884;2022-10-16T11:18:44;13.23;;;12.27;;
15905;SDS011;8051;50.820;4.884;2022-10-16T11:21:16;12.57;;;11.77;;
15905;SDS011;8051;50.820;4.884;2022-10-16T11:23:48;12.80;;;11.90;;
15905;SDS011;8051;50.820;4.884;2022-10-16T11:26:22;13.23;;;12.23;;
15905;SDS011;8051;50.820;4.884;2022-10-16T11:28:53;11.90;;;11.10;;
15905;SDS011;8051;50.820;4.884;2022-10-16T11:31:24;11.80;;;11.00;;
15905;SDS011;8051;50.820;4.884;2022-10-16T11:33:58;13.20;;;12.40;;
15905;SDS011;8051;50.820;4.884;2022-10-16T11:36:32;12.60;;;11.73;;
15905;SDS011;8051;50.820;4.884;2022-10-16T11:39:07;11.23;;;10.63;;
15905;SDS011;8051;50.820;4.884;2022-10-16T11:41:42;11.93;;;11.03;;
15905;SDS011;8051;50.820;4.884;2022-10-16T11:44:17;12.97;;;12.07;;
15905;SDS011;8051;50.820;4.884;2022-10-16T11:46:59;12.90;;;12.10;;
15905;SDS011;8051;50.820;4.884;2022-10-16T11:49:35;13.10;;;12.03;;
15905;SDS011;8051;50.820;4.884;2022-10-16T11:52:05;12.80;;;11.90;;
15905;SDS011;8051;50.820;4.884;2022-10-16T11:54:41;12.87;;;11.93;;
15905;SDS011;8051;50.820;4.884;2022-10-16T11:57:16;12.80;;;11.80;;
15905;SDS011;8051;50.820;4.884;2022-10-16T11:59:47;12.70;;;11.60;;
15905;SDS011;8051;50.820;4.884;2022-10-16T12:02:30;11.87;;;11.27;;
15905;SDS011;8051;50.820;4.884;2022-10-16T12:05:06;11.60;;;11.00;;
15905;SDS011;8051;50.820;4.884;2022-10-16T12:07:41;11.70;;;11.00;;
15905;SDS011;8051;50.820;4.884;2022-10-16T12:10:22;11.87;;;11.13;;
15905;SDS011;8051;50.820;4.884;2022-10-16T12:12:50;11.93;;;11.23;;
15905;SDS011;8051;50.820;4.884;2022-10-16T12:15:19;11.73;;;11.07;;
15905;SDS011;8051;50.820;4.884;2022-10-16T12:17:51;12.53;;;11.73;;
15905;SDS011;8051;50.820;4.884;2022-10-16T12:20:19;13.10;;;11.97;;
15905;SDS011;8051;50.820;4.884;2022-10-16T12:22:50;12.40;;;11.60;;
15905;SDS011;8051;50.820;4.884;2022-10-16T12:25:25;12.73;;;11.90;;
15905;SDS011;8051;50.820;4.884;2022-10-16T12:27:54;12.37;;;11.57;;
15905;SDS011;8051;50.820;4.884;2022-10-16T12:30:23;12.50;;;11.47;;
15905;SDS011;8051;50.820;4.884;2022-10-16T12:32:52;12.10;;;11.40;;
15905;SDS011;8051;50.820;4.884;2022-10-16T12:35:20;11.67;;;11.00;;
15905;SDS011;8051;50.820;4.884;2022-10-16T12:37:49;11.80;;;11.00;;
15905;SDS011;8051;50.820;4.884;2022-10-16T12:40:25;11.47;;;10.87;;
15905;SDS011;8051;50.820;4.884;2022-10-16T12:42:54;11.80;;;11.10;;
15905;SDS011;8051;50.820;4.884;2022-10-16T12:45:24;12.03;;;11.40;;
15905;SDS011;8051;50.820;4.884;2022-10-16T12:47:54;11.80;;;11.10;;
15905;SDS011;8051;50.820;4.884;2022-10-16T12:50:25;11.83;;;11.10;;
15905;SDS011;8051;50.820;4.884;2022-10-16T12:52:55;12.00;;;11.40;;
15905;SDS011;8051;50.820;4.884;2022-10-16T12:55:23;12.53;;;11.80;;
15905;SDS011;8051;50.820;4.884;2022-10-16T12:58:00;11.80;;;11.30;;
15905;SDS011;8051;50.820;4.884;2022-10-16T13:00:36;12.63;;;11.73;;
15905;SDS011;8051;50.820;4.884;2022-10-16T13:06:24;12.20;;;11.60;;
15905;SDS011;8051;50.820;4.884;2022-10-16T13:09:02;13.20;;;12.10;;
15905;SDS011;8051;50.820;4.884;2022-10-16T13:11:50;12.73;;;12.00;;
15905;SDS011;8051;50.820;4.884;2022-10-16T13:14:33;12.30;;;11.70;;
15905;SDS011;8051;50.820;4.884;2022-10-16T13:17:13;12.90;;;11.60;;
15905;SDS011;8051;50.820;4.884;2022-10-16T13:19:47;13.03;;;12.43;;
15905;SDS011;8051;50.820;4.884;2022-10-16T13:22:28;12.00;;;11.30;;
15905;SDS011;8051;50.820;4.884;2022-10-16T13:25:02;11.83;;;11.23;;
15905;SDS011;8051;50.820;4.884;2022-10-16T13:27:44;12.00;;;11.30;;
15905;SDS011;8051;50.820;4.884;2022-10-16T13:30:17;11.50;;;10.80;;
15905;SDS011;8051;50.820;4.884;2022-10-16T13:32:46;12.40;;;11.50;;
15905;SDS011;8051;50.820;4.884;2022-10-16T13:35:19;11.73;;;11.03;;
15905;SDS011;8051;50.820;4.884;2022-10-16T13:37:47;12.47;;;11.67;;
15905;SDS011;8051;50.820;4.884;2022-10-16T13:40:18;12.43;;;11.70;;
15905;SDS011;8051;50.820;4.884;2022-10-16T13:42:48;12.20;;;11.30;;
15905;SDS011;8051;50.820;4.884;2022-10-16T13:45:18;12.27;;;11.50;;
15905;SDS011;8051;50.820;4.884;2022-10-16T13:47:46;13.37;;;12.57;;
15905;SDS011;8051;50.820;4.884;2022-10-16T13:50:14;13.20;;;12.23;;
15905;SDS011;8051;50.820;4.884;2022-10-16T13:52:42;12.87;;;11.93;;
15905;SDS011;8051;50.820;4.884;2022-10-16T13:55:12;11.70;;;11.10;;
15905;SDS011;8051;50.820;4.884;2022-10-16T13:57:40;10.90;;;10.23;;
15905;SDS011;8051;50.820;4.884;2022-10-16T14:00:19;11.63;;;10.87;;
15905;SDS011;8051;50.820;4.884;2022-10-16T14:02:50;10.70;;;10.10;;
15905;SDS011;8051;50.820;4.884;2022-10-16T14:05:27;12.20;;;11.30;;
15905;SDS011;8051;50.820;4.884;2022-10-16T14:07:54;11.53;;;10.90;;
15905;SDS011;8051;50.820;4.884;2022-10-16T14:10:23;12.27;;;11.70;;
15905;SDS011;8051;50.820;4.884;2022-10-16T14:12:54;12.60;;;11.87;;
15905;SDS011;8051;50.820;4.884;2022-10-16T14:15:24;12.40;;;11.80;;
15905;SDS011;8051;50.820;4.884;2022-10-16T14:17:51;13.03;;;12.13;;
15905;SDS011;8051;50.820;4.884;2022-10-16T14:20:20;12.80;;;11.90;;
15905;SDS011;8051;50.820;4.884;2022-10-16T14:22:57;13.10;;;12.40;;
15905;SDS011;8051;50.820;4.884;2022-10-16T14:25:27;12.23;;;11.53;;
15905;SDS011;8051;50.820;4.884;2022-10-16T14:28:02;12.43;;;11.67;;
15905;SDS011;8051;50.820;4.884;2022-10-16T14:30:33;12.67;;;11.80;;
15905;SDS011;8051;50.820;4.884;2022-10-16T14:33:01;11.90;;;11.30;;
15905;SDS011;8051;50.820;4.884;2022-10-16T14:35:30;12.70;;;11.60;;
15905;SDS011;8051;50.820;4.884;2022-10-16T14:37:59;16.50;;;11.57;;
15905;SDS011;8051;50.820;4.884;2022-10-16T14:40:29;12.20;;;11.60;;
15905;SDS011;8051;50.820;4.884;2022-10-16T14:42:57;11.93;;;10.80;;
15905;SDS011;8051;50.820;4.884;2022-10-16T14:45:26;11.90;;;11.10;;
15905;SDS011;8051;50.820;4.884;2022-10-16T14:47:57;11.07;;;10.47;;
15905;SDS011;8051;50.820;4.884;2022-10-16T14:50:25;11.20;;;10.40;;
15905;SDS011;8051;50.820;4.884;2022-10-16T14:52:53;12.50;;;11.90;;
15905;SDS011;8051;50.820;4.884;2022-10-16T14:55:21;12.40;;;11.60;;
15905;SDS011;8051;50.820;4.884;2022-10-16T14:57:48;12.30;;;11.70;;
15905;SDS011;8051;50.820;4.884;2022-10-16T15:00:16;13.10;;;12.03;;
15905;SDS011;8051;50.820;4.884;2022-10-16T15:02:46;14.07;;;13.27;;
15905;SDS011;8051;50.820;4.884;2022-10-16T15:05:16;13.97;;;13.03;;
15905;SDS011;8051;50.820;4.884;2022-10-16T15:07:44;13.47;;;12.80;;
15905;SDS011;8051;50.820;4.884;2022-10-16T15:10:12;13.63;;;12.73;;
15905;SDS011;8051;50.820;4.884;2022-10-16T15:12:39;14.33;;;13.43;;
15905;SDS011;8051;50.820;4.884;2022-10-16T15:17:54;13.80;;;13.00;;
15905;SDS011;8051;50.820;4.884;2022-10-16T15:20:25;13.60;;;12.70;;
15905;SDS011;8051;50.820;4.884;2022-10-16T15:22:53;13.33;;;12.60;;